Time,TemperatureF,DewpointF,PressureIn,WindDirection,WindDirectionDegrees,WindSpeedMPH,WindSpeedGustMPH,Humidity,HourlyPrecipIn,Conditions,Clouds,dailyrainin,SolarRadiationWatts/m^2,SoftwareType,DateUTC
2013-04-14 00:00:00,44.9,37.8,29.95,West,259,0.0,6.0,76,0.00,,,0.00,0.0,WUHU216DAVISWMX,2013-04-14 04:00:00,
2013-04-14 00:05:00,45.4,37.3,29.95,NW,304,4.0,8.0,73,0.00,,,0.00,0.0,WUHU216DAVISWMX,2013-04-14 04:05:00,
2013-04-14 00:10:00,45.7,36.9,29.95,WNW,292,1.0,8.0,71,0.00,,,0.00,0.0,WUHU216DAVISWMX,2013-04-14 04:10:00,
2013-04-14 00:15:00,45.7,36.6,29.95,WNW,297,0.0,8.0,70,0.00,,,0.00,0.0,WUHU216DAVISWMX,2013-04-14 04:15:00,
2013-04-14 00:20:00,45.8,36.7,29.95,WNW,292,3.0,8.0,70,0.00,,,0.00,0.0,WUHU216DAVISWMX,2013-04-14 04:20:00,
2013-04-14 00:25:00,45.7,36.2,29.95,WNW,294,2.0,5.0,69,0.00,,,0.00,0.0,WUHU216DAVISWMX,2013-04-14 04:25:00,
2013-04-14 00:30:00,45.7,36.2,29.95,WNW,293,0.0,5.0,69,0.00,,,0.00,0.0,WUHU216DAVISWMX,2013-04-14 04:30:00,
2013-04-14 00:35:00,45.6,36.5,29.95,WNW,293,1.0,3.0,70,0.00,,,0.00,0.0,WUHU216DAVISWMX,2013-04-14 04:35:00,
2013-04-14 00:40:00,45.4,36.3,29.95,WNW,293,0.0,1.0,70,0.00,,,0.00,0.0,WUHU216DAVISWMX,2013-04-14 04:40:00,
2013-04-14 00:45:00,45.2,36.1,29.95,WNW,293,0.0,1.0,70,0.00,,,0.00,0.0,WUHU216DAVISWMX,2013-04-14 04:45:00,
2013-04-14 00:50:00,45.1,36.0,29.94,WNW,293,0.0,1.0,70,0.00,,,0.00,0.0,WUHU216DAVISWMX,2013-04-14 04:50:00,
2013-04-14 00:55:00,45.0,36.6,29.94,WNW,293,0.0,1.0,72,0.00,,,0.00,0.0,WUHU216DAVISWMX,2013-04-14 04:55:00,
2013-04-14 01:00:00,44.8,36.7,29.94,WNW,293,1.0,1.0,73,0.00,,,0.00,0.0,WUHU216DAVISWMX,2013-04-14 05:00:00,
2013-04-14 01:05:00,44.6,36.9,29.94,WNW,293,0.0,2.0,74,0.00,,,0.00,0.0,WUHU216DAVISWMX,2013-04-14 05:05:00,
2013-04-14 01:10:00,44.5,37.5,29.95,WNW,293,0.0,2.0,76,0.00,,,0.00,0.0,WUHU216DAVISWMX,2013-04-14 05:10:00,
2013-04-14 01:15:00,44.4,37.4,29.95,WNW,293,0.0,1.0,76,0.00,,,0.00,0.0,WUHU216DAVISWMX,2013-04-14 05:15:00,
2013-04-14 01:20:00,44.2,37.8,29.94,WNW,293,0.0,1.0,78,0.00,,,0.00,0.0,WUHU216DAVISWMX,2013-04-14 05:20:00,
2013-04-14 01:25:00,44.0,37.6,29.94,WNW,293,0.0,0.0,78,0.00,,,0.00,0.0,WUHU216DAVISWMX,2013-04-14 05:25:00,
2013-04-14 01:30:00,43.6,37.5,29.94,WNW,293,0.0,0.0,79,0.00,,,0.00,0.0,WUHU216DAVISWMX,2013-04-14 05:30:00,
2013-04-14 01:35:00,43.3,37.3,29.94,WNW,293,1.0,1.0,79,0.00,,,0.00,0.0,WUHU216DAVISWMX,2013-04-14 05:35:00,
2013-04-14 01:40:00,43.1,37.1,29.94,WNW,293,0.0,2.0,79,0.00,,,0.00,0.0,WUHU216DAVISWMX,2013-04-14 05:40:00,
2013-04-14 01:45:00,42.8,37.1,29.94,WNW,293,0.0,2.0,80,0.00,,,0.00,0.0,WUHU216DAVISWMX,2013-04-14 05:45:00,
2013-04-14 01:50:00,42.6,37.2,29.94,WNW,293,0.0,1.0,81,0.00,,,0.00,0.0,WUHU216DAVISWMX,2013-04-14 05:50:00,
2013-04-14 01:55:00,42.4,37.0,29.94,WNW,293,0.0,1.0,81,0.00,,,0.00,0.0,WUHU216DAVISWMX,2013-04-14 05:55:00,
2013-04-14 02:00:00,42.3,37.2,29.93,WNW,293,0.0,0.0,82,0.00,,,0.00,0.0,WUHU216DAVISWMX,2013-04-14 06:00:00,
2013-04-14 02:05:00,42.2,37.1,29.93,WNW,293,0.0,0.0,82,0.00,,,0.00,0.0,WUHU216DAVISWMX,2013-04-14 06:05:00,
2013-04-14 02:10:00,42.0,37.2,29.93,WNW,293,0.0,0.0,83,0.00,,,0.00,0.0,WUHU216DAVISWMX,2013-04-14 06:10:00,
2013-04-14 02:15:00,41.9,37.1,29.93,WNW,293,0.0,0.0,83,0.00,,,0.00,0.0,WUHU216DAVISWMX,2013-04-14 06:15:00,
2013-04-14 02:20:00,41.7,36.9,29.93,WNW,293,0.0,1.0,83,0.00,,,0.00,0.0,WUHU216DAVISWMX,2013-04-14 06:20:00,
2013-04-14 02:25:00,41.6,37.1,29.93,WNW,293,0.0,1.0,84,0.00,,,0.00,0.0,WUHU216DAVISWMX,2013-04-14 06:25:00,
2013-04-14 02:30:00,41.5,37.0,29.94,WNW,293,0.0,0.0,84,0.00,,,0.00,0.0,WUHU216DAVISWMX,2013-04-14 06:30:00,
2013-04-14 02:35:00,41.3,36.8,29.94,WNW,293,0.0,0.0,84,0.00,,,0.00,0.0,WUHU216DAVISWMX,2013-04-14 06:35:00,
2013-04-14 02:40:00,41.3,37.1,29.94,WNW,293,0.0,0.0,85,0.00,,,0.00,0.0,WUHU216DAVISWMX,2013-04-14 06:40:00,
2013-04-14 02:45:00,41.1,36.9,29.95,WNW,293,0.0,0.0,85,0.00,,,0.00,0.0,WUHU216DAVISWMX,2013-04-14 06:45:00,
2013-04-14 02:50:00,41.0,36.8,29.94,WNW,293,0.0,0.0,85,0.00,,,0.00,0.0,WUHU216DAVISWMX,2013-04-14 06:50:00,
2013-04-14 02:55:00,40.9,36.7,29.94,WNW,293,1.0,1.0,85,0.00,,,0.00,0.0,WUHU216DAVISWMX,2013-04-14 06:55:00,
2013-04-14 03:00:00,40.7,36.8,29.94,WNW,293,0.0,1.0,86,0.00,,,0.00,0.0,WUHU216DAVISWMX,2013-04-14 07:00:00,
2013-04-14 03:05:00,40.6,36.7,29.94,WNW,293,0.0,0.0,86,0.00,,,0.00,0.0,WUHU216DAVISWMX,2013-04-14 07:05:00,
2013-04-14 03:10:00,40.2,36.0,29.93,WNW,293,0.0,1.0,85,0.00,,,0.00,0.0,WUHU216DAVISWMX,2013-04-14 07:10:00,
2013-04-14 03:15:00,40.0,36.1,29.93,WNW,293,0.0,1.0,86,0.00,,,0.00,0.0,WUHU216DAVISWMX,2013-04-14 07:15:00,
2013-04-14 03:20:00,39.7,35.5,29.93,WNW,293,0.0,0.0,85,0.00,,,0.00,0.0,WUHU216DAVISWMX,2013-04-14 07:20:00,
2013-04-14 03:25:00,39.4,35.2,29.94,WNW,293,0.0,0.0,85,0.00,,,0.00,0.0,WUHU216DAVISWMX,2013-04-14 07:25:00,
2013-04-14 03:30:00,39.1,35.2,29.94,WNW,293,0.0,0.0,86,0.00,,,0.00,0.0,WUHU216DAVISWMX,2013-04-14 07:30:00,
2013-04-14 03:35:00,38.8,34.9,29.94,WNW,293,0.0,0.0,86,0.00,,,0.00,0.0,WUHU216DAVISWMX,2013-04-14 07:35:00,
2013-04-14 03:40:00,38.7,34.8,29.94,WNW,293,0.0,0.0,86,0.00,,,0.00,0.0,WUHU216DAVISWMX,2013-04-14 07:40:00,
2013-04-14 03:45:00,38.6,35.0,29.93,WNW,293,1.0,1.0,87,0.00,,,0.00,0.0,WUHU216DAVISWMX,2013-04-14 07:45:00,
2013-04-14 03:50:00,38.5,35.2,29.93,WNW,293,0.0,1.0,88,0.00,,,0.00,0.0,WUHU216DAVISWMX,2013-04-14 07:50:00,
2013-04-14 03:55:00,38.5,35.5,29.94,WNW,293,0.0,1.0,89,0.00,,,0.00,0.0,WUHU216DAVISWMX,2013-04-14 07:55:00,
2013-04-14 04:00:00,38.5,35.5,29.94,WNW,293,0.0,1.0,89,0.00,,,0.00,0.0,WUHU216DAVISWMX,2013-04-14 08:00:00,
2013-04-14 04:05:00,38.5,35.8,29.94,WNW,293,0.0,0.0,90,0.00,,,0.00,0.0,WUHU216DAVISWMX,2013-04-14 08:05:00,
2013-04-14 04:10:00,38.5,35.5,29.94,WNW,293,0.0,0.0,89,0.00,,,0.00,0.0,WUHU216DAVISWMX,2013-04-14 08:10:00,
2013-04-14 04:15:00,38.5,35.8,29.94,WNW,293,0.0,0.0,90,0.00,,,0.00,0.0,WUHU216DAVISWMX,2013-04-14 08:15:00,
2013-04-14 04:20:00,38.5,35.8,29.95,WNW,293,0.0,0.0,90,0.00,,,0.00,0.0,WUHU216DAVISWMX,2013-04-14 08:20:00,
2013-04-14 04:25:00,38.5,35.8,29.95,WNW,293,0.0,0.0,90,0.00,,,0.00,0.0,WUHU216DAVISWMX,2013-04-14 08:25:00,
2013-04-14 04:30:00,38.5,35.8,29.95,WNW,293,0.0,0.0,90,0.00,,,0.00,0.0,WUHU216DAVISWMX,2013-04-14 08:30:00,
2013-04-14 04:35:00,38.6,36.2,29.96,WNW,293,0.0,0.0,91,0.00,,,0.00,0.0,WUHU216DAVISWMX,2013-04-14 08:35:00,
2013-04-14 04:40:00,38.7,36.0,29.96,WNW,293,0.0,0.0,90,0.00,,,0.00,0.0,WUHU216DAVISWMX,2013-04-14 08:40:00,
2013-04-14 04:45:00,38.6,36.2,29.95,WNW,293,0.0,3.0,91,0.00,,,0.00,0.0,WUHU216DAVISWMX,2013-04-14 08:45:00,
2013-04-14 04:50:00,38.5,36.1,29.95,WNW,293,0.0,3.0,91,0.00,,,0.00,0.0,WUHU216DAVISWMX,2013-04-14 08:50:00,
2013-04-14 04:55:00,38.5,36.1,29.96,WNW,293,0.0,2.0,91,0.00,,,0.00,0.0,WUHU216DAVISWMX,2013-04-14 08:55:00,
2013-04-14 05:00:00,38.6,36.2,29.96,WNW,293,0.0,1.0,91,0.00,,,0.00,0.0,WUHU216DAVISWMX,2013-04-14 09:00:00,
2013-04-14 05:05:00,38.6,36.2,29.96,WNW,293,0.0,0.0,91,0.00,,,0.00,0.0,WUHU216DAVISWMX,2013-04-14 09:05:00,
2013-04-14 05:10:00,38.7,36.3,29.95,WNW,293,0.0,0.0,91,0.00,,,0.00,0.0,WUHU216DAVISWMX,2013-04-14 09:10:00,
2013-04-14 05:15:00,38.8,36.6,29.95,WNW,293,0.0,0.0,92,0.00,,,0.00,0.0,WUHU216DAVISWMX,2013-04-14 09:15:00,
2013-04-14 05:20:00,38.8,36.4,29.96,WNW,293,0.0,0.0,91,0.00,,,0.00,0.0,WUHU216DAVISWMX,2013-04-14 09:20:00,
2013-04-14 05:25:00,38.8,36.6,29.96,WNW,293,0.0,0.0,92,0.00,,,0.00,0.0,WUHU216DAVISWMX,2013-04-14 09:25:00,
2013-04-14 05:30:00,38.8,36.6,29.96,WNW,293,0.0,0.0,92,0.00,,,0.00,0.0,WUHU216DAVISWMX,2013-04-14 09:30:00,
2013-04-14 05:35:00,38.7,36.3,29.96,WNW,293,0.0,0.0,91,0.00,,,0.00,0.0,WUHU216DAVISWMX,2013-04-14 09:35:00,
2013-04-14 05:40:00,38.8,36.6,29.96,WNW,293,0.0,0.0,92,0.00,,,0.00,0.0,WUHU216DAVISWMX,2013-04-14 09:40:00,
2013-04-14 05:45:00,38.8,36.6,29.96,WNW,293,0.0,0.0,92,0.00,,,0.00,0.0,WUHU216DAVISWMX,2013-04-14 09:45:00,
2013-04-14 05:50:00,38.8,36.6,29.96,WNW,293,0.0,0.0,92,0.00,,,0.00,0.0,WUHU216DAVISWMX,2013-04-14 09:50:00,
2013-04-14 05:55:00,38.8,36.6,29.97,WNW,293,0.0,0.0,92,0.00,,,0.00,0.0,WUHU216DAVISWMX,2013-04-14 09:55:00,
2013-04-14 06:00:00,38.7,36.5,29.97,WNW,293,0.0,0.0,92,0.00,,,0.00,0.0,WUHU216DAVISWMX,2013-04-14 10:00:00,
2013-04-14 06:05:00,38.8,36.6,29.97,WNW,293,0.0,0.0,92,0.00,,,0.00,0.0,WUHU216DAVISWMX,2013-04-14 10:05:00,
2013-04-14 06:10:00,38.8,36.6,29.97,WNW,293,0.0,0.0,92,0.00,,,0.00,0.0,WUHU216DAVISWMX,2013-04-14 10:10:00,
2013-04-14 06:16:00,38.8,36.6,29.97,WNW,293,0.0,0.0,92,0.00,,,0.00,0.0,WUHU216DAVISWMX,2013-04-14 10:16:00,
2013-04-14 06:21:00,38.8,36.6,29.97,WNW,293,0.0,0.0,92,0.00,,,0.00,0.0,WUHU216DAVISWMX,2013-04-14 10:21:00,
2013-04-14 06:26:00,38.8,36.6,29.97,WNW,293,0.0,0.0,92,0.00,,,0.00,0.0,WUHU216DAVISWMX,2013-04-14 10:26:00,
2013-04-14 06:31:00,38.8,36.6,29.97,WNW,293,0.0,0.0,92,0.00,,,0.00,0.0,WUHU216DAVISWMX,2013-04-14 10:31:00,
2013-04-14 06:35:00,38.8,36.6,29.97,WNW,293,0.0,1.0,92,0.00,,,0.00,0.0,WUHU216DAVISWMX,2013-04-14 10:35:00,
2013-04-14 06:40:00,38.8,36.6,29.97,WNW,293,0.0,1.0,92,0.00,,,0.00,0.0,WUHU216DAVISWMX,2013-04-14 10:40:00,
2013-04-14 06:45:00,39.0,36.8,29.97,WNW,293,0.0,1.0,92,0.00,,,0.00,0.0,WUHU216DAVISWMX,2013-04-14 10:45:00,
2013-04-14 06:51:00,39.0,36.8,29.97,WNW,293,0.0,1.0,92,0.00,,,0.00,0.0,WUHU216DAVISWMX,2013-04-14 10:51:00,
2013-04-14 06:56:00,39.1,36.9,29.97,WNW,293,0.0,1.0,92,0.00,,,0.00,0.0,WUHU216DAVISWMX,2013-04-14 10:56:00,
2013-04-14 07:01:00,39.2,37.0,29.97,WNW,293,0.0,1.0,92,0.00,,,0.00,0.0,WUHU216DAVISWMX,2013-04-14 11:01:00,
2013-04-14 07:06:00,39.3,37.1,29.98,WNW,293,0.0,0.0,92,0.00,,,0.00,0.0,WUHU216DAVISWMX,2013-04-14 11:06:00,
2013-04-14 07:11:00,39.4,37.2,29.98,WNW,293,0.0,0.0,92,0.00,,,0.00,0.0,WUHU216DAVISWMX,2013-04-14 11:11:00,
2013-04-14 07:16:00,39.4,37.2,29.98,WNW,293,0.0,0.0,92,0.00,,,0.00,0.0,WUHU216DAVISWMX,2013-04-14 11:16:00,
2013-04-14 07:21:00,39.5,37.3,29.99,WNW,293,0.0,0.0,92,0.00,,,0.00,0.0,WUHU216DAVISWMX,2013-04-14 11:21:00,
2013-04-14 07:26:00,39.6,37.4,29.98,WNW,293,0.0,1.0,92,0.00,,,0.00,0.0,WUHU216DAVISWMX,2013-04-14 11:26:00,
2013-04-14 07:31:00,40.0,37.5,29.98,WNW,293,0.0,1.0,91,0.00,,,0.00,0.0,WUHU216DAVISWMX,2013-04-14 11:31:00,
2013-04-14 07:36:00,40.5,38.0,29.98,WNW,293,0.0,2.0,91,0.00,,,0.00,0.0,WUHU216DAVISWMX,2013-04-14 11:36:00,
2013-04-14 07:41:00,40.9,38.4,29.98,WNW,293,0.0,2.0,91,0.00,,,0.00,0.0,WUHU216DAVISWMX,2013-04-14 11:41:00,
2013-04-14 07:46:00,41.3,38.3,29.98,WNW,288,0.0,4.0,89,0.00,,,0.00,0.0,WUHU216DAVISWMX,2013-04-14 11:46:00,
2013-04-14 07:51:00,42.0,38.1,29.98,WNW,288,0.0,4.0,86,0.00,,,0.00,0.0,WUHU216DAVISWMX,2013-04-14 11:51:00,
2013-04-14 07:56:00,42.9,37.8,29.98,WNW,289,2.0,4.0,82,0.00,,,0.00,0.0,WUHU216DAVISWMX,2013-04-14 11:56:00,
2013-04-14 08:01:00,43.5,36.5,29.98,NW,316,1.0,6.0,76,0.00,,,0.00,0.0,WUHU216DAVISWMX,2013-04-14 12:01:00,
2013-04-14 08:06:00,43.9,35.9,29.98,WNW,283,2.0,7.0,73,0.00,,,0.00,0.0,WUHU216DAVISWMX,2013-04-14 12:06:00,
2013-04-14 08:11:00,44.2,36.2,29.98,WNW,282,0.0,7.0,73,0.00,,,0.00,0.0,WUHU216DAVISWMX,2013-04-14 12:11:00,
2013-04-14 08:16:00,44.7,35.6,29.98,West,265,1.0,5.0,70,0.00,,,0.00,0.0,WUHU216DAVISWMX,2013-04-14 12:16:00,
2013-04-14 08:21:00,44.8,35.7,29.98,West,264,1.0,5.0,70,0.00,,,0.00,0.0,WUHU216DAVISWMX,2013-04-14 12:21:00,
2013-04-14 08:26:00,45.0,35.2,29.98,WNW,294,3.0,5.0,68,0.00,,,0.00,0.0,WUHU216DAVISWMX,2013-04-14 12:26:00,
2013-04-14 08:31:00,45.2,35.4,29.99,WSW,258,2.0,10.0,68,0.00,,,0.00,0.0,WUHU216DAVISWMX,2013-04-14 12:31:00,
2013-04-14 08:36:00,45.4,35.2,29.99,West,279,1.0,10.0,67,0.00,,,0.00,0.0,WUHU216DAVISWMX,2013-04-14 12:36:00,
2013-04-14 08:41:00,45.4,35.5,29.99,NW,309,0.0,5.0,68,0.00,,,0.00,0.0,WUHU216DAVISWMX,2013-04-14 12:41:00,
2013-04-14 08:46:00,45.6,35.4,29.99,West,278,5.0,5.0,67,0.00,,,0.00,0.0,WUHU216DAVISWMX,2013-04-14 12:46:00,
2013-04-14 08:51:00,45.6,34.6,29.99,WNW,298,2.0,5.0,65,0.00,,,0.00,0.0,WUHU216DAVISWMX,2013-04-14 12:51:00,
2013-04-14 08:56:00,45.8,34.8,29.99,WNW,286,0.0,4.0,65,0.00,,,0.00,0.0,WUHU216DAVISWMX,2013-04-14 12:56:00,
2013-04-14 09:01:00,46.0,35.4,29.99,WNW,286,0.0,3.0,66,0.00,,,0.00,0.0,WUHU216DAVISWMX,2013-04-14 13:01:00,
2013-04-14 09:06:00,46.0,35.4,29.99,WNW,287,1.0,2.0,66,0.00,,,0.00,0.0,WUHU216DAVISWMX,2013-04-14 13:06:00,
2013-04-14 09:11:00,45.8,34.4,29.99,WNW,289,4.0,4.0,64,0.00,,,0.00,0.0,WUHU216DAVISWMX,2013-04-14 13:11:00,
2013-04-14 09:16:00,45.5,33.3,29.99,West,274,4.0,9.0,62,0.00,,,0.00,0.0,WUHU216DAVISWMX,2013-04-14 13:16:00,
2013-04-14 09:22:00,45.3,33.5,29.99,WNW,299,0.0,9.0,63,0.00,,,0.00,0.0,WUHU216DAVISWMX,2013-04-14 13:22:00,
2013-04-14 09:27:00,45.8,34.0,29.99,WNW,293,4.0,7.0,63,0.00,,,0.00,0.0,WUHU216DAVISWMX,2013-04-14 13:27:00,
2013-04-14 09:32:00,45.9,33.7,29.99,West,271,0.0,4.0,62,0.00,,,0.00,0.0,WUHU216DAVISWMX,2013-04-14 13:32:00,
2013-04-14 09:37:00,46.0,34.6,29.98,West,271,5.0,5.0,64,0.00,,,0.00,0.0,WUHU216DAVISWMX,2013-04-14 13:37:00,
2013-04-14 09:42:00,45.9,33.3,29.99,WNW,299,4.0,11.0,61,0.00,,,0.00,0.0,WUHU216DAVISWMX,2013-04-14 13:42:00,
2013-04-14 09:47:00,45.8,33.2,29.99,WNW,286,5.0,14.0,61,0.00,,,0.00,0.0,WUHU216DAVISWMX,2013-04-14 13:47:00,
2013-04-14 09:52:00,45.8,33.2,29.99,NW,324,6.0,14.0,61,0.00,,,0.00,0.0,WUHU216DAVISWMX,2013-04-14 13:52:00,
2013-04-14 09:57:00,45.8,32.4,29.99,NW,306,5.0,8.0,59,0.00,,,0.00,0.0,WUHU216DAVISWMX,2013-04-14 13:57:00,
2013-04-14 10:02:00,45.9,32.0,29.99,WNW,288,3.0,10.0,58,0.00,,,0.00,0.0,WUHU216DAVISWMX,2013-04-14 14:02:00,
2013-04-14 10:07:00,46.3,32.4,29.99,SW,229,5.0,10.0,58,0.00,,,0.00,0.0,WUHU216DAVISWMX,2013-04-14 14:07:00,
2013-04-14 10:12:00,46.6,32.2,29.99,NW,310,6.0,8.0,57,0.00,,,0.00,0.0,WUHU216DAVISWMX,2013-04-14 14:12:00,
2013-04-14 10:17:00,46.8,31.5,30.00,WSW,249,2.0,10.0,55,0.00,,,0.00,0.0,WUHU216DAVISWMX,2013-04-14 14:17:00,
2013-04-14 10:22:00,46.7,31.4,29.99,ENE,65,0.0,10.0,55,0.00,,,0.00,0.0,WUHU216DAVISWMX,2013-04-14 14:22:00,
2013-04-14 10:27:00,47.0,32.2,30.00,WNW,303,2.0,8.0,56,0.00,,,0.00,0.0,WUHU216DAVISWMX,2013-04-14 14:27:00,
2013-04-14 10:32:00,47.0,31.2,30.00,NW,312,4.0,10.0,54,0.00,,,0.00,0.0,WUHU216DAVISWMX,2013-04-14 14:32:00,
2013-04-14 10:37:00,47.5,32.2,29.99,South,172,3.0,10.0,55,0.00,,,0.00,0.0,WUHU216DAVISWMX,2013-04-14 14:37:00,
2013-04-14 10:42:00,48.7,32.8,29.99,WNW,283,1.0,5.0,54,0.00,,,0.00,0.0,WUHU216DAVISWMX,2013-04-14 14:42:00,
2013-04-14 10:47:00,49.5,33.6,30.00,NW,310,4.0,9.0,54,0.00,,,0.00,0.0,WUHU216DAVISWMX,2013-04-14 14:47:00,
2013-04-14 10:52:00,50.0,34.0,30.00,SW,226,1.0,10.0,54,0.00,,,0.00,0.0,WUHU216DAVISWMX,2013-04-14 14:52:00,
2013-04-14 10:57:00,50.2,31.7,30.00,West,279,4.0,12.0,49,0.00,,,0.00,0.0,WUHU216DAVISWMX,2013-04-14 14:57:00,
2013-04-14 11:02:00,50.0,32.1,29.99,WNW,282,9.0,12.0,50,0.00,,,0.00,0.0,WUHU216DAVISWMX,2013-04-14 15:02:00,
2013-04-14 11:07:00,49.8,31.4,30.00,NNW,327,5.0,9.0,49,0.00,,,0.00,0.0,WUHU216DAVISWMX,2013-04-14 15:07:00,
2013-04-14 11:12:00,49.2,30.3,30.00,NW,323,11.0,13.0,48,0.00,,,0.00,0.0,WUHU216DAVISWMX,2013-04-14 15:12:00,
2013-04-14 11:18:00,48.9,30.5,30.00,WNW,295,4.0,13.0,49,0.00,,,0.00,0.0,WUHU216DAVISWMX,2013-04-14 15:18:00,
2013-04-14 11:23:00,49.3,31.4,29.99,NNW,333,1.0,9.0,50,0.00,,,0.00,0.0,WUHU216DAVISWMX,2013-04-14 15:23:00,
2013-04-14 11:28:00,49.5,29.5,29.99,WNW,282,9.0,9.0,46,0.00,,,0.00,0.0,WUHU216DAVISWMX,2013-04-14 15:28:00,
2013-04-14 11:33:00,49.9,29.8,29.99,WNW,299,15.0,15.0,46,0.00,,,0.00,0.0,WUHU216DAVISWMX,2013-04-14 15:33:00,
2013-04-14 11:38:00,49.7,29.1,29.99,NW,320,13.0,15.0,45,0.00,,,0.00,0.0,WUHU216DAVISWMX,2013-04-14 15:38:00,
2013-04-14 11:43:00,49.5,29.5,29.99,WSW,246,3.0,13.0,46,0.00,,,0.00,0.0,WUHU216DAVISWMX,2013-04-14 15:43:00,
2013-04-14 11:48:00,49.8,29.7,29.99,NW,307,0.0,12.0,46,0.00,,,0.00,0.0,WUHU216DAVISWMX,2013-04-14 15:48:00,
2013-04-14 11:53:00,50.3,29.7,29.99,West,274,4.0,11.0,45,0.00,,,0.00,0.0,WUHU216DAVISWMX,2013-04-14 15:53:00,
2013-04-14 11:58:00,50.5,29.8,29.99,NNW,330,3.0,13.0,45,0.00,,,0.00,0.0,WUHU216DAVISWMX,2013-04-14 15:58:00,
2013-04-14 12:03:00,50.5,29.8,29.99,NW,314,3.0,13.0,45,0.00,,,0.00,0.0,WUHU216DAVISWMX,2013-04-14 16:03:00,
2013-04-14 12:08:00,49.9,29.3,29.99,NW,304,5.0,12.0,45,0.00,,,0.00,0.0,WUHU216DAVISWMX,2013-04-14 16:08:00,
2013-04-14 12:13:00,49.6,27.9,29.99,WNW,282,6.0,13.0,43,0.00,,,0.00,0.0,WUHU216DAVISWMX,2013-04-14 16:13:00,
2013-04-14 12:18:00,49.3,28.2,30.00,West,281,5.0,15.0,44,0.00,,,0.00,0.0,WUHU216DAVISWMX,2013-04-14 16:18:00,
2013-04-14 12:23:00,49.5,29.5,29.99,West,280,3.0,15.0,46,0.00,,,0.00,0.0,WUHU216DAVISWMX,2013-04-14 16:23:00,
2013-04-14 12:28:00,49.8,28.6,30.00,NW,320,7.0,14.0,44,0.00,,,0.00,0.0,WUHU216DAVISWMX,2013-04-14 16:28:00,
2013-04-14 12:33:00,49.6,29.0,29.99,NW,308,1.0,14.0,45,0.00,,,0.00,0.0,WUHU216DAVISWMX,2013-04-14 16:33:00,
2013-04-14 12:38:00,50.2,29.0,29.99,WNW,284,2.0,11.0,44,0.00,,,0.00,0.0,WUHU216DAVISWMX,2013-04-14 16:38:00,
2013-04-14 12:43:00,50.4,29.2,30.00,West,259,2.0,10.0,44,0.00,,,0.00,0.0,WUHU216DAVISWMX,2013-04-14 16:43:00,
2013-04-14 12:48:00,49.9,28.1,29.99,NW,312,7.0,12.0,43,0.00,,,0.00,0.0,WUHU216DAVISWMX,2013-04-14 16:48:00,
2013-04-14 12:53:00,49.5,27.8,29.99,NW,304,2.0,15.0,43,0.00,,,0.00,0.0,WUHU216DAVISWMX,2013-04-14 16:53:00,
2013-04-14 12:58:00,49.5,27.8,30.00,WNW,295,5.0,15.0,43,0.00,,,0.00,0.0,WUHU216DAVISWMX,2013-04-14 16:58:00,
2013-04-14 13:03:00,49.7,28.0,30.00,WNW,292,8.0,13.0,43,0.00,,,0.00,0.0,WUHU216DAVISWMX,2013-04-14 17:03:00,
2013-04-14 13:08:00,50.6,28.8,29.99,West,272,0.0,12.0,43,0.00,,,0.00,0.0,WUHU216DAVISWMX,2013-04-14 17:08:00,
2013-04-14 13:13:00,51.4,29.5,29.99,NW,306,5.0,12.0,43,0.00,,,0.00,0.0,WUHU216DAVISWMX,2013-04-14 17:13:00,
2013-04-14 13:18:00,51.7,29.2,30.00,West,271,8.0,11.0,42,0.00,,,0.00,0.0,WUHU216DAVISWMX,2013-04-14 17:18:00,
2013-04-14 13:23:00,50.9,26.6,30.00,WNW,288,6.0,12.0,39,0.00,,,0.00,0.0,WUHU216DAVISWMX,2013-04-14 17:23:00,
2013-04-14 13:28:00,51.1,28.6,29.99,NE,55,4.0,12.0,42,0.00,,,0.00,0.0,WUHU216DAVISWMX,2013-04-14 17:28:00,
2013-04-14 13:33:00,51.3,27.6,30.00,WNW,301,12.0,12.0,40,0.00,,,0.00,0.0,WUHU216DAVISWMX,2013-04-14 17:33:00,
2013-04-14 13:38:00,51.4,27.1,30.00,NW,309,13.0,13.0,39,0.00,,,0.00,0.0,WUHU216DAVISWMX,2013-04-14 17:38:00,
2013-04-14 13:43:00,51.5,27.8,30.00,WNW,301,4.0,14.0,40,0.00,,,0.00,0.0,WUHU216DAVISWMX,2013-04-14 17:43:00,
2013-04-14 13:48:00,51.9,29.4,30.00,ESE,113,4.0,14.0,42,0.00,,,0.00,0.0,WUHU216DAVISWMX,2013-04-14 17:48:00,
2013-04-14 13:53:00,52.2,29.0,30.00,WNW,285,3.0,21.0,41,0.00,,,0.00,0.0,WUHU216DAVISWMX,2013-04-14 17:53:00,
2013-04-14 13:58:00,52.4,29.8,30.00,West,264,5.0,21.0,42,0.00,,,0.00,0.0,WUHU216DAVISWMX,2013-04-14 17:58:00,
2013-04-14 14:03:00,52.8,29.0,30.00,WNW,297,3.0,12.0,40,0.00,,,0.00,0.0,WUHU216DAVISWMX,2013-04-14 18:03:00,
2013-04-14 14:08:00,52.1,28.9,30.00,West,263,5.0,13.0,41,0.00,,,0.00,0.0,WUHU216DAVISWMX,2013-04-14 18:08:00,
2013-04-14 14:13:00,51.7,28.6,30.01,NW,316,9.0,18.0,41,0.00,,,0.00,0.0,WUHU216DAVISWMX,2013-04-14 18:13:00,
2013-04-14 14:18:00,51.2,28.1,30.01,WNW,298,9.0,18.0,41,0.00,,,0.00,0.0,WUHU216DAVISWMX,2013-04-14 18:18:00,
2013-04-14 14:23:00,50.6,28.2,30.01,WNW,290,3.0,14.0,42,0.00,,,0.00,0.0,WUHU216DAVISWMX,2013-04-14 18:23:00,
2013-04-14 14:28:00,50.5,28.7,30.01,WNW,302,7.0,14.0,43,0.00,,,0.00,0.0,WUHU216DAVISWMX,2013-04-14 18:28:00,
2013-04-14 14:33:00,50.4,29.2,30.02,WNW,285,5.0,13.0,44,0.00,,,0.00,0.0,WUHU216DAVISWMX,2013-04-14 18:33:00,
2013-04-14 14:38:00,50.7,30.0,30.02,WNW,291,6.0,15.0,45,0.00,,,0.00,0.0,WUHU216DAVISWMX,2013-04-14 18:38:00,
2013-04-14 14:43:00,50.2,27.8,30.02,WNW,296,8.0,17.0,42,0.00,,,0.00,0.0,WUHU216DAVISWMX,2013-04-14 18:43:00,
2013-04-14 14:48:00,50.0,27.6,30.02,WNW,291,0.0,17.0,42,0.00,,,0.00,0.0,WUHU216DAVISWMX,2013-04-14 18:48:00,
2013-04-14 14:53:00,49.9,27.6,30.02,WNW,295,4.0,18.0,42,0.00,,,0.00,0.0,WUHU216DAVISWMX,2013-04-14 18:53:00,
2013-04-14 14:58:00,50.1,28.9,30.02,NW,306,0.0,18.0,44,0.00,,,0.00,0.0,WUHU216DAVISWMX,2013-04-14 18:58:00,
2013-04-14 15:03:00,50.4,28.6,30.02,WNW,282,4.0,9.0,43,0.00,,,0.00,0.0,WUHU216DAVISWMX,2013-04-14 19:03:00,
2013-04-14 15:08:00,50.1,27.1,30.02,WNW,295,6.0,16.0,41,0.00,,,0.00,0.0,WUHU216DAVISWMX,2013-04-14 19:08:00,
2013-04-14 15:13:00,50.1,28.3,30.02,WNW,293,6.0,16.0,43,0.00,,,0.00,0.0,WUHU216DAVISWMX,2013-04-14 19:13:00,
2013-04-14 15:18:00,50.2,27.2,30.02,West,277,3.0,16.0,41,0.00,,,0.00,0.0,WUHU216DAVISWMX,2013-04-14 19:18:00,
2013-04-14 15:23:00,50.4,28.0,30.02,WNW,298,4.0,14.0,42,0.00,,,0.00,0.0,WUHU216DAVISWMX,2013-04-14 19:23:00,
2013-04-14 15:28:00,50.9,29.1,30.03,WNW,292,7.0,11.0,43,0.00,,,0.00,0.0,WUHU216DAVISWMX,2013-04-14 19:28:00,
2013-04-14 15:33:00,50.7,27.7,30.03,WNW,282,1.0,11.0,41,0.00,,,0.00,0.0,WUHU216DAVISWMX,2013-04-14 19:33:00,
2013-04-14 15:38:00,50.3,26.7,30.03,WNW,284,2.0,11.0,40,0.00,,,0.00,0.0,WUHU216DAVISWMX,2013-04-14 19:38:00,
2013-04-14 15:43:00,50.1,27.1,30.03,WNW,302,5.0,9.0,41,0.00,,,0.00,0.0,WUHU216DAVISWMX,2013-04-14 19:43:00,
2013-04-14 15:48:00,50.2,27.2,30.03,West,273,2.0,9.0,41,0.00,,,0.00,0.0,WUHU216DAVISWMX,2013-04-14 19:48:00,
2013-04-14 15:53:00,50.2,27.2,30.03,WNW,298,4.0,10.0,41,0.00,,,0.00,0.0,WUHU216DAVISWMX,2013-04-14 19:53:00,
2013-04-14 15:58:00,49.9,28.1,30.04,WNW,295,5.0,16.0,43,0.00,,,0.00,0.0,WUHU216DAVISWMX,2013-04-14 19:58:00,
2013-04-14 16:03:00,49.7,28.5,30.04,SSE,157,5.0,16.0,44,0.00,,,0.00,0.0,WUHU216DAVISWMX,2013-04-14 20:03:00,
2013-04-14 16:08:00,50.0,28.2,30.04,WNW,283,2.0,9.0,43,0.00,,,0.00,0.0,WUHU216DAVISWMX,2013-04-14 20:08:00,
2013-04-14 16:13:00,49.9,27.6,30.04,West,274,8.0,9.0,42,0.00,,,0.00,0.0,WUHU216DAVISWMX,2013-04-14 20:13:00,
2013-04-14 16:18:00,50.1,27.7,30.04,West,267,5.0,9.0,42,0.00,,,0.00,0.0,WUHU216DAVISWMX,2013-04-14 20:18:00,
2013-04-14 16:23:00,50.0,27.0,30.04,West,275,6.0,13.0,41,0.00,,,0.00,0.0,WUHU216DAVISWMX,2013-04-14 20:23:00,
2013-04-14 16:28:00,49.7,26.8,30.04,West,279,3.0,17.0,41,0.00,,,0.00,0.0,WUHU216DAVISWMX,2013-04-14 20:28:00,
2013-04-14 16:33:00,50.0,27.6,30.04,SW,233,3.0,17.0,42,0.00,,,0.00,0.0,WUHU216DAVISWMX,2013-04-14 20:33:00,
2013-04-14 16:38:00,49.5,27.8,30.05,WNW,293,9.0,20.0,43,0.00,,,0.00,0.0,WUHU216DAVISWMX,2013-04-14 20:38:00,
2013-04-14 16:43:00,49.1,27.4,30.05,WNW,286,5.0,20.0,43,0.00,,,0.00,0.0,WUHU216DAVISWMX,2013-04-14 20:43:00,
2013-04-14 16:48:00,48.9,26.6,30.05,NW,311,4.0,17.0,42,0.00,,,0.00,0.0,WUHU216DAVISWMX,2013-04-14 20:48:00,
2013-04-14 16:53:00,48.8,27.7,30.05,WNW,285,10.0,17.0,44,0.00,,,0.00,0.0,WUHU216DAVISWMX,2013-04-14 20:53:00,
2013-04-14 16:58:00,48.9,27.2,30.06,NNW,347,5.0,11.0,43,0.00,,,0.00,0.0,WUHU216DAVISWMX,2013-04-14 20:58:00,
2013-04-14 17:03:00,49.1,26.8,30.06,NW,318,9.0,11.0,42,0.00,,,0.00,0.0,WUHU216DAVISWMX,2013-04-14 21:03:00,
2013-04-14 17:08:00,49.1,26.8,30.06,WNW,283,10.0,16.0,42,0.00,,,0.00,0.0,WUHU216DAVISWMX,2013-04-14 21:08:00,
2013-04-14 17:13:00,48.7,26.5,30.07,WNW,298,8.0,16.0,42,0.00,,,0.00,0.0,WUHU216DAVISWMX,2013-04-14 21:13:00,
2013-04-14 17:18:00,48.2,26.6,30.07,WNW,301,7.0,11.0,43,0.00,,,0.00,0.0,WUHU216DAVISWMX,2013-04-14 21:18:00,
2013-04-14 17:23:00,48.0,29.2,30.07,WNW,294,2.0,11.0,48,0.00,,,0.00,0.0,WUHU216DAVISWMX,2013-04-14 21:23:00,
2013-04-14 17:28:00,48.1,29.3,30.07,WNW,287,6.0,8.0,48,0.00,,,0.00,0.0,WUHU216DAVISWMX,2013-04-14 21:28:00,
2013-04-14 17:33:00,48.3,28.9,30.07,West,269,11.0,11.0,47,0.00,,,0.00,0.0,WUHU216DAVISWMX,2013-04-14 21:33:00,
2013-04-14 17:38:00,48.7,29.3,30.07,West,274,4.0,11.0,47,0.00,,,0.00,0.0,WUHU216DAVISWMX,2013-04-14 21:38:00,
2013-04-14 17:43:00,49.1,29.1,30.08,NW,306,5.0,9.0,46,0.00,,,0.00,0.0,WUHU216DAVISWMX,2013-04-14 21:43:00,
2013-04-14 17:48:00,49.6,30.1,30.08,NW,306,2.0,9.0,47,0.00,,,0.00,0.0,WUHU216DAVISWMX,2013-04-14 21:48:00,
2013-04-14 17:53:00,49.7,29.1,30.08,NW,305,4.0,11.0,45,0.00,,,0.00,0.0,WUHU216DAVISWMX,2013-04-14 21:53:00,
2013-04-14 17:58:00,49.4,28.8,30.08,NW,314,8.0,12.0,45,0.00,,,0.00,0.0,WUHU216DAVISWMX,2013-04-14 21:58:00,
2013-04-14 18:03:00,49.0,28.5,30.08,West,274,5.0,15.0,45,0.00,,,0.00,0.0,WUHU216DAVISWMX,2013-04-14 22:03:00,
2013-04-14 18:08:00,48.6,28.1,30.09,NW,325,4.0,15.0,45,0.00,,,0.00,0.0,WUHU216DAVISWMX,2013-04-14 22:08:00,
2013-04-14 18:14:00,48.5,28.6,30.09,NW,304,8.0,16.0,46,0.00,,,0.00,0.0,WUHU216DAVISWMX,2013-04-14 22:14:00,
2013-04-14 18:19:00,48.2,28.8,30.09,NNW,327,8.0,16.0,47,0.00,,,0.00,0.0,WUHU216DAVISWMX,2013-04-14 22:19:00,
2013-04-14 18:24:00,48.1,28.2,30.09,NW,322,6.0,15.0,46,0.00,,,0.00,0.0,WUHU216DAVISWMX,2013-04-14 22:24:00,
2013-04-14 18:29:00,48.0,28.6,30.09,NW,304,11.0,15.0,47,0.00,,,0.00,0.0,WUHU216DAVISWMX,2013-04-14 22:29:00,
2013-04-14 18:34:00,47.9,28.5,30.10,NW,317,3.0,15.0,47,0.00,,,0.00,0.0,WUHU216DAVISWMX,2013-04-14 22:34:00,
2013-04-14 18:39:00,47.8,28.5,30.10,NW,312,2.0,12.0,47,0.00,,,0.00,0.0,WUHU216DAVISWMX,2013-04-14 22:39:00,
2013-04-14 18:44:00,47.7,28.9,30.10,West,277,4.0,12.0,48,0.00,,,0.00,0.0,WUHU216DAVISWMX,2013-04-14 22:44:00,
2013-04-14 18:49:00,47.5,28.7,30.09,WNW,295,0.0,12.0,48,0.00,,,0.00,0.0,WUHU216DAVISWMX,2013-04-14 22:49:00,
2013-04-14 18:54:00,47.4,28.1,30.10,WNW,292,5.0,10.0,47,0.00,,,0.00,0.0,WUHU216DAVISWMX,2013-04-14 22:54:00,
2013-04-14 18:59:00,47.2,27.9,30.10,NW,311,2.0,10.0,47,0.00,,,0.00,0.0,WUHU216DAVISWMX,2013-04-14 22:59:00,
2013-04-14 19:04:00,47.1,28.3,30.10,WNW,300,5.0,12.0,48,0.00,,,0.00,0.0,WUHU216DAVISWMX,2013-04-14 23:04:00,
2013-04-14 19:09:00,46.9,28.7,30.10,West,261,3.0,12.0,49,0.00,,,0.00,0.0,WUHU216DAVISWMX,2013-04-14 23:09:00,
2013-04-14 19:14:00,46.7,28.5,30.11,NW,312,4.0,6.0,49,0.00,,,0.00,0.0,WUHU216DAVISWMX,2013-04-14 23:14:00,
2013-04-14 19:19:00,46.5,28.3,30.12,WNW,298,1.0,9.0,49,0.00,,,0.00,0.0,WUHU216DAVISWMX,2013-04-14 23:19:00,
2013-04-14 19:24:00,46.4,27.7,30.12,WNW,292,5.0,13.0,48,0.00,,,0.00,0.0,WUHU216DAVISWMX,2013-04-14 23:24:00,
2013-04-14 19:29:00,46.3,27.6,30.12,WNW,300,7.0,13.0,48,0.00,,,0.00,0.0,WUHU216DAVISWMX,2013-04-14 23:29:00,
2013-04-14 19:34:00,46.1,27.4,30.12,NW,312,6.0,9.0,48,0.00,,,0.00,0.0,WUHU216DAVISWMX,2013-04-14 23:34:00,
2013-04-14 19:39:00,46.1,26.9,30.13,NNW,331,3.0,10.0,47,0.00,,,0.00,0.0,WUHU216DAVISWMX,2013-04-14 23:39:00,
2013-04-14 19:44:00,45.9,27.2,30.13,West,281,0.0,10.0,48,0.00,,,0.00,0.0,WUHU216DAVISWMX,2013-04-14 23:44:00,
2013-04-14 19:49:00,45.6,27.5,30.13,NW,308,3.0,6.0,49,0.00,,,0.00,0.0,WUHU216DAVISWMX,2013-04-14 23:49:00,
2013-04-14 19:54:00,45.4,27.3,30.14,NW,307,1.0,5.0,49,0.00,,,0.00,0.0,WUHU216DAVISWMX,2013-04-14 23:54:00,
2013-04-14 19:59:00,45.3,27.7,30.13,NW,312,4.0,7.0,50,0.00,,,0.00,0.0,WUHU216DAVISWMX,2013-04-14 23:59:00,
2013-04-14 20:04:00,45.0,27.4,30.14,NW,312,0.0,7.0,50,0.00,,,0.00,0.0,WUHU216DAVISWMX,2013-04-15 00:04:00,
2013-04-14 20:09:00,44.8,27.7,30.14,NW,312,0.0,4.0,51,0.00,,,0.00,0.0,WUHU216DAVISWMX,2013-04-15 00:09:00,
2013-04-14 20:14:00,44.6,27.6,30.15,NW,311,4.0,4.0,51,0.00,,,0.00,0.0,WUHU216DAVISWMX,2013-04-15 00:14:00,
2013-04-14 20:19:00,44.4,28.3,30.15,NW,310,0.0,5.0,53,0.00,,,0.00,0.0,WUHU216DAVISWMX,2013-04-15 00:19:00,
2013-04-14 20:24:00,44.1,28.5,30.16,NW,310,0.0,5.0,54,0.00,,,0.00,0.0,WUHU216DAVISWMX,2013-04-15 00:24:00,
2013-04-14 20:29:00,43.8,28.7,30.16,NW,310,0.0,0.0,55,0.00,,,0.00,0.0,WUHU216DAVISWMX,2013-04-15 00:29:00,
2013-04-14 20:34:00,43.5,28.4,30.16,NW,310,0.0,0.0,55,0.00,,,0.00,0.0,WUHU216DAVISWMX,2013-04-15 00:34:00,
2013-04-14 20:39:00,43.0,28.0,30.16,NW,310,0.0,0.0,55,0.00,,,0.00,0.0,WUHU216DAVISWMX,2013-04-15 00:39:00,
2013-04-14 20:44:00,42.6,28.0,30.17,NW,310,0.0,0.0,56,0.00,,,0.00,0.0,WUHU216DAVISWMX,2013-04-15 00:44:00,
2013-04-14 20:49:00,42.1,28.4,30.17,NW,310,0.0,0.0,58,0.00,,,0.00,0.0,WUHU216DAVISWMX,2013-04-15 00:49:00,
2013-04-14 20:54:00,41.6,28.8,30.18,NW,310,0.0,0.0,60,0.00,,,0.00,0.0,WUHU216DAVISWMX,2013-04-15 00:54:00,
2013-04-14 20:59:00,41.1,28.7,30.18,NW,310,0.0,0.0,61,0.00,,,0.00,0.0,WUHU216DAVISWMX,2013-04-15 00:59:00,
2013-04-14 21:04:00,40.7,28.4,30.19,NW,310,0.0,0.0,61,0.00,,,0.00,0.0,WUHU216DAVISWMX,2013-04-15 01:04:00,
2013-04-14 21:09:00,40.3,28.4,30.19,NW,310,0.0,0.0,62,0.00,,,0.00,0.0,WUHU216DAVISWMX,2013-04-15 01:09:00,
2013-04-14 21:14:00,39.9,28.0,30.19,NW,310,0.0,0.0,62,0.00,,,0.00,0.0,WUHU216DAVISWMX,2013-04-15 01:14:00,
2013-04-14 21:19:00,39.5,28.4,30.19,NW,310,0.0,0.0,64,0.00,,,0.00,0.0,WUHU216DAVISWMX,2013-04-15 01:19:00,
2013-04-14 21:24:00,39.0,27.9,30.20,NW,310,0.0,0.0,64,0.00,,,0.00,0.0,WUHU216DAVISWMX,2013-04-15 01:24:00,
2013-04-14 21:29:00,38.7,28.4,30.20,NW,310,0.0,0.0,66,0.00,,,0.00,0.0,WUHU216DAVISWMX,2013-04-15 01:29:00,
2013-04-14 21:34:00,38.4,29.2,30.21,NW,310,0.0,0.0,69,0.00,,,0.00,0.0,WUHU216DAVISWMX,2013-04-15 01:34:00,
2013-04-14 21:39:00,38.1,28.5,30.20,NW,310,0.0,0.0,68,0.00,,,0.00,0.0,WUHU216DAVISWMX,2013-04-15 01:39:00,
2013-04-14 21:44:00,37.8,27.9,30.21,NW,310,0.0,0.0,67,0.00,,,0.00,0.0,WUHU216DAVISWMX,2013-04-15 01:44:00,
2013-04-14 21:49:00,37.5,28.0,30.21,NW,310,0.0,0.0,68,0.00,,,0.00,0.0,WUHU216DAVISWMX,2013-04-15 01:49:00,
2013-04-14 21:54:00,37.3,27.8,30.21,NW,310,0.0,0.0,68,0.00,,,0.00,0.0,WUHU216DAVISWMX,2013-04-15 01:54:00,
2013-04-14 21:59:00,37.0,27.8,30.21,NW,310,0.0,0.0,69,0.00,,,0.00,0.0,WUHU216DAVISWMX,2013-04-15 01:59:00,
2013-04-14 22:04:00,36.7,27.9,30.21,NW,310,0.0,0.0,70,0.00,,,0.00,0.0,WUHU216DAVISWMX,2013-04-15 02:04:00,
2013-04-14 22:09:00,36.4,28.0,30.21,NW,310,0.0,0.0,71,0.00,,,0.00,0.0,WUHU216DAVISWMX,2013-04-15 02:09:00,
2013-04-14 22:14:00,36.2,28.1,30.21,NW,310,0.0,0.0,72,0.00,,,0.00,0.0,WUHU216DAVISWMX,2013-04-15 02:14:00,
2013-04-14 22:19:00,36.0,27.9,30.21,NW,310,0.0,0.0,72,0.00,,,0.00,0.0,WUHU216DAVISWMX,2013-04-15 02:19:00,
2013-04-14 22:24:00,35.8,28.0,30.21,NW,310,0.0,0.0,73,0.00,,,0.00,0.0,WUHU216DAVISWMX,2013-04-15 02:24:00,
2013-04-14 22:29:00,35.6,28.2,30.21,NW,310,0.0,0.0,74,0.00,,,0.00,0.0,WUHU216DAVISWMX,2013-04-15 02:29:00,
2013-04-14 22:34:00,35.4,28.0,30.21,NW,310,0.0,0.0,74,0.00,,,0.00,0.0,WUHU216DAVISWMX,2013-04-15 02:34:00,
2013-04-14 22:39:00,35.2,27.8,30.21,NW,310,0.0,0.0,74,0.00,,,0.00,0.0,WUHU216DAVISWMX,2013-04-15 02:39:00,
2013-04-14 22:44:00,35.0,27.9,30.21,NW,310,0.0,0.0,75,0.00,,,0.00,0.0,WUHU216DAVISWMX,2013-04-15 02:44:00,
2013-04-14 22:49:00,34.8,27.7,30.22,NW,310,0.0,0.0,75,0.00,,,0.00,0.0,WUHU216DAVISWMX,2013-04-15 02:49:00,
2013-04-14 22:54:00,34.6,27.5,30.22,NW,310,0.0,0.0,75,0.00,,,0.00,0.0,WUHU216DAVISWMX,2013-04-15 02:54:00,
2013-04-14 22:59:00,34.4,27.3,30.22,NW,310,0.0,0.0,75,0.00,,,0.00,0.0,WUHU216DAVISWMX,2013-04-15 02:59:00,
2013-04-14 23:04:00,34.2,27.1,30.22,NW,310,0.0,0.0,75,0.00,,,0.00,0.0,WUHU216DAVISWMX,2013-04-15 03:04:00,
2013-04-14 23:09:00,33.9,26.2,30.22,NW,310,0.0,0.0,73,0.00,,,0.00,0.0,WUHU216DAVISWMX,2013-04-15 03:09:00,
2013-04-14 23:14:00,33.6,25.9,30.22,NW,310,0.0,0.0,73,0.00,,,0.00,0.0,WUHU216DAVISWMX,2013-04-15 03:14:00,
2013-04-14 23:19:00,33.4,26.1,30.22,NW,310,0.0,0.0,74,0.00,,,0.00,0.0,WUHU216DAVISWMX,2013-04-15 03:19:00,
2013-04-14 23:24:00,33.4,26.7,30.22,NW,310,0.0,0.0,76,0.00,,,0.00,0.0,WUHU216DAVISWMX,2013-04-15 03:24:00,
2013-04-14 23:29:00,33.2,26.8,30.22,NW,310,0.0,0.0,77,0.00,,,0.00,0.0,WUHU216DAVISWMX,2013-04-15 03:29:00,
2013-04-14 23:34:00,33.0,26.6,30.23,NW,310,0.0,0.0,77,0.00,,,0.00,0.0,WUHU216DAVISWMX,2013-04-15 03:34:00,
2013-04-14 23:39:00,32.8,27.0,30.22,NW,310,0.0,0.0,79,0.00,,,0.00,0.0,WUHU216DAVISWMX,2013-04-15 03:39:00,
2013-04-14 23:44:00,32.6,26.8,30.22,NW,310,0.0,0.0,79,0.00,,,0.00,0.0,WUHU216DAVISWMX,2013-04-15 03:44:00,
2013-04-14 23:49:00,32.4,26.6,30.23,NW,310,0.0,0.0,79,0.00,,,0.00,0.0,WUHU216DAVISWMX,2013-04-15 03:49:00,
2013-04-14 23:54:00,32.3,26.8,30.23,NW,310,0.0,0.0,80,0.00,,,0.00,0.0,WUHU216DAVISWMX,2013-04-15 03:54:00,
2013-04-14 23:59:00,32.1,26.3,30.24,NW,310,0.0,0.0,79,0.00,,,0.00,0.0,WUHU216DAVISWMX,2013-04-15 03:59:00,